Ever Ursula — 3FCB9 — position and weather

sailwx.info

Track history (hours):
 
Tides and Currents Weather Stations Pressure Air Temp Water Temp Dewpoint Dewpoint Depression Visibility Wind Speed Wind Dir Waves Ship Positions

Ever Ursula

Last reported at 2014-Nov-21 21:22 UTC. Time now 2014-Nov-22 01:49 UTC.
Position N 38°30' E 121°09'.

Type: Cargo ship. MMSI: 357737000.

Date/timePositionNaut miles runAvg speedWind from/ knotsBaromVisibWave heightAir tempDewpointWater temp
2014-Nov-21 21:22N 38°30' E 121°09'1213.5
2014-Nov-21 20:30N 38°23' E 121°22'2713.6
2014-Nov-21 18:29N 38°10' E 121°53'3913.4
2014-Nov-21 15:32N 37°50' E 122°35'1212.6
2014-Nov-21 14:33N 37°41' E 122°47'1413.0
2014-Nov-21 13:29N 37°31' E 122°58'  
2014-Nov-18 11:34N 22°19' E 114°06'2 0.4
2014-Nov-18 07:33N 22°20' E 114°08'0 0.0
2014-Nov-18 06:19N 22°20' E 114°08'0 0.0
2014-Nov-18 04:27N 22°20' E 114°08'0 0.0
2014-Nov-18 02:26N 22°20' E 114°08'0 0.0
2014-Nov-18 01:33N 22°20' E 114°08'0 0.0
2014-Nov-18 00:32N 22°20' E 114°08'0 0.0
2014-Nov-17 23:29N 22°20' E 114°08'0 0.0
2014-Nov-17 22:33N 22°20' E 114°08'0 0.0
2014-Nov-17 21:33N 22°20' E 114°08'0 0.0
2014-Nov-17 20:30N 22°20' E 114°08'0 0.0
2014-Nov-17 19:32N 22°20' E 114°08'0 0.0
2014-Nov-17 18:33N 22°20' E 114°08'0 0.0
2014-Nov-17 16:33N 22°20' E 114°08'0 0.0
2014-Nov-17 15:33N 22°20' E 114°08'0 0.0
2014-Nov-17 14:33N 22°20' E 114°08'0 0.0
2014-Nov-17 13:33N 22°20' E 114°08'0 0.0
2014-Nov-17 12:30N 22°20' E 114°08'0 0.0
2014-Nov-17 11:32N 22°20' E 114°08'0 0.0
2014-Nov-17 10:23N 22°20' E 114°08'0 0.4
2014-Nov-17 09:26N 22°19' E 114°07'9 7.2
2014-Nov-17 08:06N 22°11' E 114°12'15413.2
2014-Nov-16 20:30N 22°51' E 116°53'2014.2
2014-Nov-16 19:05N 23°02' E 117°11'47115.4
2014-Nov-15 12:26N 29°13' E 122°33'1816.2
2014-Nov-15 11:18N 29°31' E 122°31'1216.0
2014-Nov-15 10:33N 29°42' E 122°24'1010.5
2014-Nov-15 09:33N 29°48' E 122°14'1010.2
2014-Nov-15 08:33N 29°55' E 122°06'3 2.9
2014-Nov-15 07:28N 29°53' E 122°03'0 0.0
2014-Nov-15 06:22N 29°53' E 122°03'0 0.0
2014-Nov-15 05:22N 29°53' E 122°03'0 0.1
2014-Nov-15 04:28N 29°53' E 122°03'0 0.0
2014-Nov-15 03:22N 29°53' E 122°03'0 0.0
2014-Nov-15 02:28N 29°53' E 122°03'0 0.0
2014-Nov-15 01:10N 29°53' E 122°03'0 0.1
2014-Nov-15 00:22N 29°53' E 122°03'0 0.1
2014-Nov-14 23:22N 29°53' E 122°03'0 0.0
2014-Nov-14 22:04N 29°53' E 122°03'0 0.0
2014-Nov-14 21:16N 29°53' E 122°03'0 0.1
2014-Nov-14 20:28N 29°53' E 122°03'0 0.0
2014-Nov-14 19:16N 29°53' E 122°03'1 1.8
2014-Nov-14 18:33N 29°55' E 122°03'1010.4
2014-Nov-14 17:33N 29°49' E 122°13'9 9.1
2014-Nov-14 16:33N 29°44' E 122°22'1111.0
2014-Nov-14 15:33N 29°47' E 122°34'1815.9
2014-Nov-14 14:27N 29°59' E 122°48'  
2014-Nov-12 05:11N 35°55' E 120°45'1219.3
2014-Nov-12 04:34N 35°59' E 120°31'1414.3
2014-Nov-12 03:33N 36°01' E 120°13'1 0.8
2014-Nov-12 02:29N 36°01' E 120°12'0 0.0
2014-Nov-12 01:29N 36°01' E 120°12'0 0.0
2014-Nov-11 23:20N 36°01' E 120°12'0 0.0
2014-Nov-11 22:31N 36°01' E 120°12'  
Track history (hours):
 
Tides and Currents Weather Stations Pressure Air Temp Water Temp Dewpoint Dewpoint Depression Visibility Wind Speed Wind Dir Waves Ship Positions

Ever Ursula

Last reported at 2014-Nov-21 21:22 UTC. Time now 2014-Nov-22 01:49 UTC.
Position N 38°30' E 121°09'.

Type: Cargo ship. MMSI: 357737000.

Date/timePositionNaut miles runAvg speedWind from/ knotsBaromVisibWave heightAir tempDewpointWater temp
2014-Nov-21 21:22N 38°30' E 121°09'1213.5
2014-Nov-21 20:30N 38°23' E 121°22'2713.6
2014-Nov-21 18:29N 38°10' E 121°53'3913.4
2014-Nov-21 15:32N 37°50' E 122°35'1212.6
2014-Nov-21 14:33N 37°41' E 122°47'1413.0
2014-Nov-21 13:29N 37°31' E 122°58'  
2014-Nov-18 11:34N 22°19' E 114°06'2 0.4
2014-Nov-18 07:33N 22°20' E 114°08'0 0.0
2014-Nov-18 06:19N 22°20' E 114°08'0 0.0
2014-Nov-18 04:27N 22°20' E 114°08'0 0.0
2014-Nov-18 02:26N 22°20' E 114°08'0 0.0
2014-Nov-18 01:33N 22°20' E 114°08'0 0.0
2014-Nov-18 00:32N 22°20' E 114°08'0 0.0
2014-Nov-17 23:29N 22°20' E 114°08'0 0.0
2014-Nov-17 22:33N 22°20' E 114°08'0 0.0
2014-Nov-17 21:33N 22°20' E 114°08'0 0.0
2014-Nov-17 20:30N 22°20' E 114°08'0 0.0
2014-Nov-17 19:32N 22°20' E 114°08'0 0.0
2014-Nov-17 18:33N 22°20' E 114°08'0 0.0
2014-Nov-17 16:33N 22°20' E 114°08'0 0.0
2014-Nov-17 15:33N 22°20' E 114°08'0 0.0
2014-Nov-17 14:33N 22°20' E 114°08'0 0.0
2014-Nov-17 13:33N 22°20' E 114°08'0 0.0
2014-Nov-17 12:30N 22°20' E 114°08'0 0.0
2014-Nov-17 11:32N 22°20' E 114°08'0 0.0
2014-Nov-17 10:23N 22°20' E 114°08'0 0.4
2014-Nov-17 09:26N 22°19' E 114°07'9 7.2
2014-Nov-17 08:06N 22°11' E 114°12'15413.2
2014-Nov-16 20:30N 22°51' E 116°53'2014.2
2014-Nov-16 19:05N 23°02' E 117°11'47115.4
2014-Nov-15 12:26N 29°13' E 122°33'1816.2
2014-Nov-15 11:18N 29°31' E 122°31'1216.0
2014-Nov-15 10:33N 29°42' E 122°24'1010.5
2014-Nov-15 09:33N 29°48' E 122°14'1010.2
2014-Nov-15 08:33N 29°55' E 122°06'3 2.9
2014-Nov-15 07:28N 29°53' E 122°03'0 0.0
2014-Nov-15 06:22N 29°53' E 122°03'0 0.0
2014-Nov-15 05:22N 29°53' E 122°03'0 0.1
2014-Nov-15 04:28N 29°53' E 122°03'0 0.0
2014-Nov-15 03:22N 29°53' E 122°03'0 0.0
2014-Nov-15 02:28N 29°53' E 122°03'0 0.0
2014-Nov-15 01:10N 29°53' E 122°03'0 0.1
2014-Nov-15 00:22N 29°53' E 122°03'0 0.1
2014-Nov-14 23:22N 29°53' E 122°03'0 0.0
2014-Nov-14 22:04N 29°53' E 122°03'0 0.0
2014-Nov-14 21:16N 29°53' E 122°03'0 0.1
2014-Nov-14 20:28N 29°53' E 122°03'0 0.0
2014-Nov-14 19:16N 29°53' E 122°03'1 1.8
2014-Nov-14 18:33N 29°55' E 122°03'1010.4
2014-Nov-14 17:33N 29°49' E 122°13'9 9.1
2014-Nov-14 16:33N 29°44' E 122°22'1111.0
2014-Nov-14 15:33N 29°47' E 122°34'1815.9
2014-Nov-14 14:27N 29°59' E 122°48'  
2014-Nov-12 05:11N 35°55' E 120°45'1219.3
2014-Nov-12 04:34N 35°59' E 120°31'1414.3
2014-Nov-12 03:33N 36°01' E 120°13'1 0.8
2014-Nov-12 02:29N 36°01' E 120°12'0 0.0
2014-Nov-12 01:29N 36°01' E 120°12'0 0.0
2014-Nov-11 23:20N 36°01' E 120°12'0 0.0
2014-Nov-11 22:31N 36°01' E 120°12'  

Dump ship's entire track history